Oconto, WI (54153)

4:14 PM CDT on September 04, 2015 (GMT -0500)
MARITIME | | Change Station
CLOSE
Current Station
Personal Weather Station
Location: Oconto, WI
Elevation: 582 ft
Nearby Weather Stations

Elev 582 ft 44.80 °N, 87.80 °W | Updated 44 minutes ago

Clear
Clear
68.0 °F
Feels Like 68.0 °F
N
11.0
Wind Variable Wind from ENE
Gusts 13.0 mph

Today
High -- | Low -- °F
--% Chance of Precip.
Yesterday
High -- | Low -- °F
Precip. -- in
6:17 AM 7:23 PM
Waning Gibbous, 56% visible
Pressure 30.04 in
Visibility 10.0 miles
Clouds Clear
Dew Point Not available.
Humidity Not available.
Rainfall in
Snow Depth Not available.
UV 4 out of 12
Pollen 8.90 out of 12
Air Quality Not available.
Flu Activity Not available.
METAR KOCQ 042055Z AUTO 11006KT 10SM CLR 24/20 A3004 RMK AO1 P0001 60004 T02360202
Pressure 30.04 in
Visibility 10.0 miles
Clouds Clear
Dew Point Not available.
Humidity Not available.
Rainfall in
Snow Depth Not available.
UV 4 out of 12
Pollen 8.90 out of 12
Air Quality Not available.
Flu Activity Not available.
METAR KOCQ 042055Z AUTO 11006KT 10SM CLR 24/20 A3004 RMK AO1 P0001 60004 T02360202

10-Day Weather Forecast

×

Almanac

Astronomy

Sep. 04, 2015 Rise Set
Actual Time
Civil Twilight
Nautical Twilight
Astronomical Twilight
Moon
Length of Visible Light
Length of Day
Tomorrow will be .
, % of the Moon is Illuminated

Today's Extremes

State Highs State Lows

Community

WunderPhotos

Upload Photos

1,852,296 photos uploaded!

WunderBlogs® & News

Nearby

Air Quality

  Air Quality AQ Index Pollutant
Not available.

Snow Depth

Station Depth Elevation

Earthquake Activity

City Distance Mag. Time & Date
Minimum magnitude displayed is 2.5.

Coastal Water Temperatures

Place Temperature

Stations

Nearby Weather Stations

Station Location Temp. Windchill Dew Point Humidity Wind Precip. Elev Updated Type